sensor_id;sensor_type;location;lat;lon;timestamp;temperature;humidity
74923;HTU21D;64715;44.760;37.678;2023-06-22T00:00:34;20.21;68.75
74923;HTU21D;64715;44.760;37.678;2023-06-22T00:01:35;20.24;68.79
74923;HTU21D;64715;44.760;37.678;2023-06-22T00:02:36;20.26;68.69
74923;HTU21D;64715;44.760;37.678;2023-06-22T00:03:37;20.28;68.75
74923;HTU21D;64715;44.760;37.678;2023-06-22T00:04:37;20.30;68.57
74923;HTU21D;64715;44.760;37.678;2023-06-22T00:05:38;20.30;68.45
74923;HTU21D;64715;44.760;37.678;2023-06-22T00:06:40;20.29;68.45
74923;HTU21D;64715;44.760;37.678;2023-06-22T00:07:40;20.29;68.34
74923;HTU21D;64715;44.760;37.678;2023-06-22T00:08:41;20.28;68.33
74923;HTU21D;64715;44.760;37.678;2023-06-22T00:09:42;20.28;68.20
74923;HTU21D;64715;44.760;37.678;2023-06-22T00:10:44;20.27;68.30
74923;HTU21D;64715;44.760;37.678;2023-06-22T00:11:45;20.27;68.29
74923;HTU21D;64715;44.760;37.678;2023-06-22T00:12:46;20.26;68.20
74923;HTU21D;64715;44.760;37.678;2023-06-22T00:13:47;20.27;68.34
74923;HTU21D;64715;44.760;37.678;2023-06-22T00:14:49;20.25;68.31
74923;HTU21D;64715;44.760;37.678;2023-06-22T00:15:50;20.24;68.39
74923;HTU21D;64715;44.760;37.678;2023-06-22T00:16:51;20.22;68.39
74923;HTU21D;64715;44.760;37.678;2023-06-22T00:17:55;20.20;68.27
74923;HTU21D;64715;44.760;37.678;2023-06-22T00:18:58;20.18;68.29
74923;HTU21D;64715;44.760;37.678;2023-06-22T00:20:01;20.17;68.34
74923;HTU21D;64715;44.760;37.678;2023-06-22T00:21:02;20.16;68.26
74923;HTU21D;64715;44.760;37.678;2023-06-22T00:22:03;20.13;68.47
74923;HTU21D;64715;44.760;37.678;2023-06-22T00:23:06;20.11;68.58
74923;HTU21D;64715;44.760;37.678;2023-06-22T00:24:08;20.12;68.56
74923;HTU21D;64715;44.760;37.678;2023-06-22T00:25:11;20.11;68.73
74923;HTU21D;64715;44.760;37.678;2023-06-22T00:26:15;20.11;68.90
74923;HTU21D;64715;44.760;37.678;2023-06-22T00:27:18;20.12;68.91
74923;HTU21D;64715;44.760;37.678;2023-06-22T00:28:19;20.12;68.98
74923;HTU21D;64715;44.760;37.678;2023-06-22T00:29:20;20.11;69.00
74923;HTU21D;64715;44.760;37.678;2023-06-22T00:30:21;20.12;68.91
74923;HTU21D;64715;44.760;37.678;2023-06-22T00:31:22;20.11;69.17
74923;HTU21D;64715;44.760;37.678;2023-06-22T00:32:23;20.10;69.24
74923;HTU21D;64715;44.760;37.678;2023-06-22T00:33:24;20.11;69.28
74923;HTU21D;64715;44.760;37.678;2023-06-22T00:34:25;20.12;69.29
74923;HTU21D;64715;44.760;37.678;2023-06-22T00:35:27;20.12;69.27
74923;HTU21D;64715;44.760;37.678;2023-06-22T00:36:31;20.13;69.29
74923;HTU21D;64715;44.760;37.678;2023-06-22T00:37:32;20.14;69.33
74923;HTU21D;64715;44.760;37.678;2023-06-22T00:38:34;20.16;69.46
74923;HTU21D;64715;44.760;37.678;2023-06-22T00:39:36;20.17;69.42
74923;HTU21D;64715;44.760;37.678;2023-06-22T00:40:38;20.18;69.53
74923;HTU21D;64715;44.760;37.678;2023-06-22T00:41:39;20.19;69.36
74923;HTU21D;64715;44.760;37.678;2023-06-22T00:42:40;20.20;69.43
74923;HTU21D;64715;44.760;37.678;2023-06-22T00:43:42;20.21;69.41
74923;HTU21D;64715;44.760;37.678;2023-06-22T00:44:43;20.21;69.42
74923;HTU21D;64715;44.760;37.678;2023-06-22T00:45:45;20.22;69.25
74923;HTU21D;64715;44.760;37.678;2023-06-22T00:46:47;20.24;69.26
74923;HTU21D;64715;44.760;37.678;2023-06-22T00:47:48;20.22;69.32
74923;HTU21D;64715;44.760;37.678;2023-06-22T00:48:50;20.24;69.34
74923;HTU21D;64715;44.760;37.678;2023-06-22T00:49:53;20.24;69.33
74923;HTU21D;64715;44.760;37.678;2023-06-22T00:50:54;20.24;69.33
74923;HTU21D;64715;44.760;37.678;2023-06-22T00:51:58;20.25;69.52
74923;HTU21D;64715;44.760;37.678;2023-06-22T00:53:07;20.22;69.40
74923;HTU21D;64715;44.760;37.678;2023-06-22T00:54:09;20.25;69.44
74923;HTU21D;64715;44.760;37.678;2023-06-22T00:55:12;20.24;69.39
74923;HTU21D;64715;44.760;37.678;2023-06-22T00:56:15;20.26;69.53
74923;HTU21D;64715;44.760;37.678;2023-06-22T00:57:20;20.25;69.28
74923;HTU21D;64715;44.760;37.678;2023-06-22T00:58:22;20.26;69.16
74923;HTU21D;64715;44.760;37.678;2023-06-22T00:59:23;20.26;69.24
74923;HTU21D;64715;44.760;37.678;2023-06-22T01:00:25;20.24;69.16
74923;HTU21D;64715;44.760;37.678;2023-06-22T01:01:27;20.22;69.16
74923;HTU21D;64715;44.760;37.678;2023-06-22T01:02:30;20.21;69.22
74923;HTU21D;64715;44.760;37.678;2023-06-22T01:03:32;20.21;69.10
74923;HTU21D;64715;44.760;37.678;2023-06-22T01:04:38;20.21;69.07
74923;HTU21D;64715;44.760;37.678;2023-06-22T01:05:41;20.20;69.10
74923;HTU21D;64715;44.760;37.678;2023-06-22T01:06:50;20.20;69.06
74923;HTU21D;64715;44.760;37.678;2023-06-22T01:09:02;20.17;68.91
74923;HTU21D;64715;44.760;37.678;2023-06-22T01:09:57;20.13;68.82
74923;HTU21D;64715;44.760;37.678;2023-06-22T01:12:42;20.05;68.79
74923;HTU21D;64715;44.760;37.678;2023-06-22T01:14:13;20.02;68.77
74923;HTU21D;64715;44.760;37.678;2023-06-22T01:15:23;20.00;68.91
74923;HTU21D;64715;44.760;37.678;2023-06-22T01:16:30;19.98;68.86
74923;HTU21D;64715;44.760;37.678;2023-06-22T01:17:32;19.97;68.76
74923;HTU21D;64715;44.760;37.678;2023-06-22T01:18:35;19.95;68.87
74923;HTU21D;64715;44.760;37.678;2023-06-22T01:19:51;19.92;69.04
74923;HTU21D;64715;44.760;37.678;2023-06-22T01:20:57;19.90;68.84
74923;HTU21D;64715;44.760;37.678;2023-06-22T01:22:00;19.89;68.94
74923;HTU21D;64715;44.760;37.678;2023-06-22T01:25:07;19.84;68.91
74923;HTU21D;64715;44.760;37.678;2023-06-22T01:26:28;19.82;68.85
74923;HTU21D;64715;44.760;37.678;2023-06-22T01:27:51;19.80;68.78
74923;HTU21D;64715;44.760;37.678;2023-06-22T01:28:55;19.77;68.81
74923;HTU21D;64715;44.760;37.678;2023-06-22T01:29:59;19.74;68.77
74923;HTU21D;64715;44.760;37.678;2023-06-22T01:31:02;19.71;68.94
74923;HTU21D;64715;44.760;37.678;2023-06-22T01:32:06;19.70;68.99
74923;HTU21D;64715;44.760;37.678;2023-06-22T01:33:11;19.70;68.98
74923;HTU21D;64715;44.760;37.678;2023-06-22T01:34:16;19.69;69.14
74923;HTU21D;64715;44.760;37.678;2023-06-22T01:35:19;19.70;68.92
74923;HTU21D;64715;44.760;37.678;2023-06-22T01:36:22;19.68;69.13
74923;HTU21D;64715;44.760;37.678;2023-06-22T01:37:24;19.70;69.07
74923;HTU21D;64715;44.760;37.678;2023-06-22T01:38:26;19.67;69.17
74923;HTU21D;64715;44.760;37.678;2023-06-22T01:39:29;19.67;69.21
74923;HTU21D;64715;44.760;37.678;2023-06-22T01:40:32;19.66;69.22
74923;HTU21D;64715;44.760;37.678;2023-06-22T01:41:38;19.65;69.18
74923;HTU21D;64715;44.760;37.678;2023-06-22T01:42:39;19.63;69.22
74923;HTU21D;64715;44.760;37.678;2023-06-22T01:43:42;19.65;69.31
74923;HTU21D;64715;44.760;37.678;2023-06-22T01:44:43;19.66;69.45
74923;HTU21D;64715;44.760;37.678;2023-06-22T01:45:45;19.68;69.39
74923;HTU21D;64715;44.760;37.678;2023-06-22T01:46:48;19.70;69.33
74923;HTU21D;64715;44.760;37.678;2023-06-22T01:47:49;19.71;69.30
74923;HTU21D;64715;44.760;37.678;2023-06-22T01:48:50;19.72;69.39
74923;HTU21D;64715;44.760;37.678;2023-06-22T01:49:52;19.71;69.45
74923;HTU21D;64715;44.760;37.678;2023-06-22T01:50:55;19.72;69.29
74923;HTU21D;64715;44.760;37.678;2023-06-22T01:51:56;19.74;69.29
74923;HTU21D;64715;44.760;37.678;2023-06-22T01:52:57;19.74;69.27
74923;HTU21D;64715;44.760;37.678;2023-06-22T01:54:01;19.74;69.29
74923;HTU21D;64715;44.760;37.678;2023-06-22T01:55:03;19.74;69.24
74923;HTU21D;64715;44.760;37.678;2023-06-22T01:56:05;19.75;69.09
74923;HTU21D;64715;44.760;37.678;2023-06-22T01:57:08;19.75;69.28
74923;HTU21D;64715;44.760;37.678;2023-06-22T01:58:11;19.76;69.20
74923;HTU21D;64715;44.760;37.678;2023-06-22T01:59:29;19.79;69.08
74923;HTU21D;64715;44.760;37.678;2023-06-22T02:00:34;19.82;69.16
74923;HTU21D;64715;44.760;37.678;2023-06-22T02:01:59;19.82;69.12
74923;HTU21D;64715;44.760;37.678;2023-06-22T02:03:10;19.81;68.91
74923;HTU21D;64715;44.760;37.678;2023-06-22T02:04:21;19.81;69.01
74923;HTU21D;64715;44.760;37.678;2023-06-22T02:05:24;19.83;68.95
74923;HTU21D;64715;44.760;37.678;2023-06-22T02:06:33;19.83;68.84
74923;HTU21D;64715;44.760;37.678;2023-06-22T02:07:42;19.86;68.90
74923;HTU21D;64715;44.760;37.678;2023-06-22T02:08:51;19.86;68.85
74923;HTU21D;64715;44.760;37.678;2023-06-22T02:09:53;19.88;68.94
74923;HTU21D;64715;44.760;37.678;2023-06-22T02:10:56;19.96;69.04
74923;HTU21D;64715;44.760;37.678;2023-06-22T02:11:59;20.02;69.13
74923;HTU21D;64715;44.760;37.678;2023-06-22T02:13:04;20.13;69.06
74923;HTU21D;64715;44.760;37.678;2023-06-22T02:14:05;20.21;69.00
74923;HTU21D;64715;44.760;37.678;2023-06-22T02:15:09;20.30;68.81
74923;HTU21D;64715;44.760;37.678;2023-06-22T02:16:11;20.42;69.00
74923;HTU21D;64715;44.760;37.678;2023-06-22T02:17:18;20.55;68.80
74923;HTU21D;64715;44.760;37.678;2023-06-22T02:18:19;20.68;68.68
74923;HTU21D;64715;44.760;37.678;2023-06-22T02:19:23;20.83;68.49
74923;HTU21D;64715;44.760;37.678;2023-06-22T02:20:25;21.00;68.33
74923;HTU21D;64715;44.760;37.678;2023-06-22T02:21:26;21.16;68.06
74923;HTU21D;64715;44.760;37.678;2023-06-22T02:22:27;21.31;68.07
74923;HTU21D;64715;44.760;37.678;2023-06-22T02:23:28;21.44;67.82
74923;HTU21D;64715;44.760;37.678;2023-06-22T02:24:29;21.61;67.46
74923;HTU21D;64715;44.760;37.678;2023-06-22T02:25:33;21.77;67.28
74923;HTU21D;64715;44.760;37.678;2023-06-22T02:26:34;21.91;67.03
74923;HTU21D;64715;44.760;37.678;2023-06-22T02:27:36;22.08;66.76
74923;HTU21D;64715;44.760;37.678;2023-06-22T02:28:40;22.24;66.65
74923;HTU21D;64715;44.760;37.678;2023-06-22T02:29:41;22.40;66.18
74923;HTU21D;64715;44.760;37.678;2023-06-22T02:30:44;22.58;65.84
74923;HTU21D;64715;44.760;37.678;2023-06-22T02:31:45;22.76;65.59
74923;HTU21D;64715;44.760;37.678;2023-06-22T02:32:46;22.92;65.36
74923;HTU21D;64715;44.760;37.678;2023-06-22T02:33:50;23.08;65.04
74923;HTU21D;64715;44.760;37.678;2023-06-22T02:34:53;23.24;64.67
74923;HTU21D;64715;44.760;37.678;2023-06-22T02:35:54;23.39;64.34
74923;HTU21D;64715;44.760;37.678;2023-06-22T02:36:56;23.52;63.95
74923;HTU21D;64715;44.760;37.678;2023-06-22T02:37:59;23.66;63.70
74923;HTU21D;64715;44.760;37.678;2023-06-22T02:39:01;23.82;63.42
74923;HTU21D;64715;44.760;37.678;2023-06-22T02:40:06;23.98;63.16
74923;HTU21D;64715;44.760;37.678;2023-06-22T02:41:10;24.19;62.95
74923;HTU21D;64715;44.760;37.678;2023-06-22T02:42:14;24.38;62.49
74923;HTU21D;64715;44.760;37.678;2023-06-22T02:43:16;24.56;62.12
74923;HTU21D;64715;44.760;37.678;2023-06-22T02:44:19;24.74;61.73
74923;HTU21D;64715;44.760;37.678;2023-06-22T02:45:22;24.91;61.49
74923;HTU21D;64715;44.760;37.678;2023-06-22T02:46:23;25.10;61.13
74923;HTU21D;64715;44.760;37.678;2023-06-22T02:47:25;25.30;60.76
74923;HTU21D;64715;44.760;37.678;2023-06-22T02:48:26;25.51;60.37
74923;HTU21D;64715;44.760;37.678;2023-06-22T02:49:27;25.69;59.97
74923;HTU21D;64715;44.760;37.678;2023-06-22T02:50:28;25.92;59.52
74923;HTU21D;64715;44.760;37.678;2023-06-22T02:51:32;26.12;59.00
74923;HTU21D;64715;44.760;37.678;2023-06-22T02:52:35;26.35;58.67
74923;HTU21D;64715;44.760;37.678;2023-06-22T02:53:36;26.54;58.13
74923;HTU21D;64715;44.760;37.678;2023-06-22T02:54:37;26.69;57.76
74923;HTU21D;64715;44.760;37.678;2023-06-22T02:55:38;26.85;57.52
74923;HTU21D;64715;44.760;37.678;2023-06-22T02:56:40;27.07;57.22
74923;HTU21D;64715;44.760;37.678;2023-06-22T02:57:44;27.25;56.68
74923;HTU21D;64715;44.760;37.678;2023-06-22T02:58:47;27.42;56.26
74923;HTU21D;64715;44.760;37.678;2023-06-22T02:59:48;27.57;55.94
74923;HTU21D;64715;44.760;37.678;2023-06-22T03:00:49;27.75;55.53
74923;HTU21D;64715;44.760;37.678;2023-06-22T03:01:54;27.96;54.98
74923;HTU21D;64715;44.760;37.678;2023-06-22T03:03:02;28.17;54.61
74923;HTU21D;64715;44.760;37.678;2023-06-22T03:04:04;28.37;54.16
74923;HTU21D;64715;44.760;37.678;2023-06-22T03:05:05;28.57;53.59
74923;HTU21D;64715;44.760;37.678;2023-06-22T03:06:07;28.77;53.17
74923;HTU21D;64715;44.760;37.678;2023-06-22T03:07:08;28.98;52.79
74923;HTU21D;64715;44.760;37.678;2023-06-22T03:08:09;29.18;52.29
74923;HTU21D;64715;44.760;37.678;2023-06-22T03:09:10;29.39;52.11
74923;HTU21D;64715;44.760;37.678;2023-06-22T03:10:13;29.65;51.64
74923;HTU21D;64715;44.760;37.678;2023-06-22T03:11:14;29.90;50.95
74923;HTU21D;64715;44.760;37.678;2023-06-22T03:12:15;30.12;50.54
74923;HTU21D;64715;44.760;37.678;2023-06-22T03:13:23;30.38;49.83
74923;HTU21D;64715;44.760;37.678;2023-06-22T03:14:25;30.55;49.36
74923;HTU21D;64715;44.760;37.678;2023-06-22T03:15:28;30.69;48.83
74923;HTU21D;64715;44.760;37.678;2023-06-22T03:16:30;30.81;48.44
74923;HTU21D;64715;44.760;37.678;2023-06-22T03:17:32;30.86;48.09
74923;HTU21D;64715;44.760;37.678;2023-06-22T03:18:35;30.87;47.76
74923;HTU21D;64715;44.760;37.678;2023-06-22T03:19:36;30.91;47.50
74923;HTU21D;64715;44.760;37.678;2023-06-22T03:20:37;30.98;47.37
74923;HTU21D;64715;44.760;37.678;2023-06-22T03:21:40;31.05;46.99
74923;HTU21D;64715;44.760;37.678;2023-06-22T03:22:41;31.10;46.67
74923;HTU21D;64715;44.760;37.678;2023-06-22T03:23:43;31.18;46.41
74923;HTU21D;64715;44.760;37.678;2023-06-22T03:24:45;31.28;46.29
74923;HTU21D;64715;44.760;37.678;2023-06-22T03:25:47;31.37;45.90
74923;HTU21D;64715;44.760;37.678;2023-06-22T03:26:48;31.44;45.64
74923;HTU21D;64715;44.760;37.678;2023-06-22T03:27:50;31.37;45.61
74923;HTU21D;64715;44.760;37.678;2023-06-22T03:28:51;31.29;45.59
74923;HTU21D;64715;44.760;37.678;2023-06-22T03:29:52;31.36;45.53
74923;HTU21D;64715;44.760;37.678;2023-06-22T03:30:53;31.46;45.35
74923;HTU21D;64715;44.760;37.678;2023-06-22T03:31:54;31.59;45.15
74923;HTU21D;64715;44.760;37.678;2023-06-22T03:32:56;31.69;44.40
74923;HTU21D;64715;44.760;37.678;2023-06-22T03:33:57;31.69;43.99
74923;HTU21D;64715;44.760;37.678;2023-06-22T03:34:58;31.68;43.74
74923;HTU21D;64715;44.760;37.678;2023-06-22T03:36:00;31.67;43.52
74923;HTU21D;64715;44.760;37.678;2023-06-22T03:37:02;31.70;43.44
74923;HTU21D;64715;44.760;37.678;2023-06-22T03:38:03;31.76;43.10
74923;HTU21D;64715;44.760;37.678;2023-06-22T03:39:05;31.81;43.06
74923;HTU21D;64715;44.760;37.678;2023-06-22T03:40:07;31.82;42.88
74923;HTU21D;64715;44.760;37.678;2023-06-22T03:41:09;31.84;42.55
74923;HTU21D;64715;44.760;37.678;2023-06-22T03:42:10;31.89;42.61
74923;HTU21D;64715;44.760;37.678;2023-06-22T03:43:11;31.90;42.48
74923;HTU21D;64715;44.760;37.678;2023-06-22T03:44:12;31.90;42.32
74923;HTU21D;64715;44.760;37.678;2023-06-22T03:45:13;31.92;42.42
74923;HTU21D;64715;44.760;37.678;2023-06-22T03:46:15;32.00;42.21
74923;HTU21D;64715;44.760;37.678;2023-06-22T03:47:17;32.09;42.07
74923;HTU21D;64715;44.760;37.678;2023-06-22T03:48:18;32.17;41.74
74923;HTU21D;64715;44.760;37.678;2023-06-22T03:49:19;32.25;41.50
74923;HTU21D;64715;44.760;37.678;2023-06-22T03:50:20;32.34;41.19
74923;HTU21D;64715;44.760;37.678;2023-06-22T03:51:21;32.37;40.99
74923;HTU21D;64715;44.760;37.678;2023-06-22T03:52:22;32.37;40.90
74923;HTU21D;64715;44.760;37.678;2023-06-22T03:53:23;32.33;41.00
74923;HTU21D;64715;44.760;37.678;2023-06-22T03:54:24;32.34;40.93
74923;HTU21D;64715;44.760;37.678;2023-06-22T03:55:26;32.34;40.75
74923;HTU21D;64715;44.760;37.678;2023-06-22T03:56:27;32.32;40.67
74923;HTU21D;64715;44.760;37.678;2023-06-22T03:57:29;32.33;40.63
74923;HTU21D;64715;44.760;37.678;2023-06-22T03:58:30;32.37;40.62
74923;HTU21D;64715;44.760;37.678;2023-06-22T03:59:33;32.43;40.62
74923;HTU21D;64715;44.760;37.678;2023-06-22T04:00:34;32.54;40.33
74923;HTU21D;64715;44.760;37.678;2023-06-22T04:01:35;32.61;40.27
74923;HTU21D;64715;44.760;37.678;2023-06-22T04:02:37;32.75;39.90
74923;HTU21D;64715;44.760;37.678;2023-06-22T04:03:38;32.79;39.84
74923;HTU21D;64715;44.760;37.678;2023-06-22T04:04:40;32.79;39.75
74923;HTU21D;64715;44.760;37.678;2023-06-22T04:05:41;32.84;39.54
74923;HTU21D;64715;44.760;37.678;2023-06-22T04:06:42;32.94;39.54
74923;HTU21D;64715;44.760;37.678;2023-06-22T04:07:43;33.08;39.26
74923;HTU21D;64715;44.760;37.678;2023-06-22T04:08:45;33.26;39.16
74923;HTU21D;64715;44.760;37.678;2023-06-22T04:09:49;33.50;38.80
74923;HTU21D;64715;44.760;37.678;2023-06-22T04:10:51;33.75;38.57
74923;HTU21D;64715;44.760;37.678;2023-06-22T04:11:52;34.06;38.17
74923;HTU21D;64715;44.760;37.678;2023-06-22T04:12:53;34.37;37.79
74923;HTU21D;64715;44.760;37.678;2023-06-22T04:13:54;34.65;37.43
74923;HTU21D;64715;44.760;37.678;2023-06-22T04:14:56;34.96;36.89
74923;HTU21D;64715;44.760;37.678;2023-06-22T04:15:57;35.22;36.42
74923;HTU21D;64715;44.760;37.678;2023-06-22T04:16:58;35.40;35.94
74923;HTU21D;64715;44.760;37.678;2023-06-22T04:17:59;35.58;35.62
74923;HTU21D;64715;44.760;37.678;2023-06-22T04:19:00;35.78;35.45
74923;HTU21D;64715;44.760;37.678;2023-06-22T04:20:01;35.96;35.22
74923;HTU21D;64715;44.760;37.678;2023-06-22T04:21:04;36.12;34.70
74923;HTU21D;64715;44.760;37.678;2023-06-22T04:22:05;36.22;34.30
74923;HTU21D;64715;44.760;37.678;2023-06-22T04:23:08;36.28;34.15
74923;HTU21D;64715;44.760;37.678;2023-06-22T04:24:09;36.32;33.87
74923;HTU21D;64715;44.760;37.678;2023-06-22T04:25:10;36.28;33.78
74923;HTU21D;64715;44.760;37.678;2023-06-22T04:26:11;36.28;33.89
74923;HTU21D;64715;44.760;37.678;2023-06-22T04:27:12;36.39;34.01
74923;HTU21D;64715;44.760;37.678;2023-06-22T04:28:13;36.62;33.75
74923;HTU21D;64715;44.760;37.678;2023-06-22T04:29:15;36.92;33.48
74923;HTU21D;64715;44.760;37.678;2023-06-22T04:30:16;37.20;33.09
74923;HTU21D;64715;44.760;37.678;2023-06-22T04:31:17;37.44;32.36
74923;HTU21D;64715;44.760;37.678;2023-06-22T04:32:21;37.60;32.00
74923;HTU21D;64715;44.760;37.678;2023-06-22T04:33:22;37.75;31.61
74923;HTU21D;64715;44.760;37.678;2023-06-22T04:34:23;37.95;31.27
74923;HTU21D;64715;44.760;37.678;2023-06-22T04:35:27;38.15;30.93
74923;HTU21D;64715;44.760;37.678;2023-06-22T04:36:28;38.25;30.67
74923;HTU21D;64715;44.760;37.678;2023-06-22T04:37:31;38.32;30.37
74923;HTU21D;64715;44.760;37.678;2023-06-22T04:38:33;38.33;29.96
74923;HTU21D;64715;44.760;37.678;2023-06-22T04:39:34;38.35;29.87
74923;HTU21D;64715;44.760;37.678;2023-06-22T04:40:36;38.38;29.65
74923;HTU21D;64715;44.760;37.678;2023-06-22T04:41:38;38.36;29.53
74923;HTU21D;64715;44.760;37.678;2023-06-22T04:42:42;38.34;29.55
74923;HTU21D;64715;44.760;37.678;2023-06-22T04:43:52;38.39;29.38
74923;HTU21D;64715;44.760;37.678;2023-06-22T04:44:54;38.43;29.29
74923;HTU21D;64715;44.760;37.678;2023-06-22T04:45:58;38.52;29.20
74923;HTU21D;64715;44.760;37.678;2023-06-22T04:47:04;38.69;29.06
74923;HTU21D;64715;44.760;37.678;2023-06-22T04:48:09;38.86;28.90
74923;HTU21D;64715;44.760;37.678;2023-06-22T04:49:10;39.02;28.42
74923;HTU21D;64715;44.760;37.678;2023-06-22T04:50:14;39.17;28.40
74923;HTU21D;64715;44.760;37.678;2023-06-22T04:51:16;39.27;28.16
74923;HTU21D;64715;44.760;37.678;2023-06-22T04:52:17;39.29;28.03
74923;HTU21D;64715;44.760;37.678;2023-06-22T04:53:20;39.40;27.91
74923;HTU21D;64715;44.760;37.678;2023-06-22T04:54:21;39.53;27.84
74923;HTU21D;64715;44.760;37.678;2023-06-22T04:55:23;39.65;27.69
74923;HTU21D;64715;44.760;37.678;2023-06-22T04:56:26;39.80;27.43
74923;HTU21D;64715;44.760;37.678;2023-06-22T04:57:30;39.93;27.31
74923;HTU21D;64715;44.760;37.678;2023-06-22T04:58:33;40.06;27.08
74923;HTU21D;64715;44.760;37.678;2023-06-22T04:59:34;40.08;26.74
74923;HTU21D;64715;44.760;37.678;2023-06-22T05:00:36;39.99;26.59
74923;HTU21D;64715;44.760;37.678;2023-06-22T05:01:37;39.85;26.76
74923;HTU21D;64715;44.760;37.678;2023-06-22T05:02:41;39.73;27.10
74923;HTU21D;64715;44.760;37.678;2023-06-22T05:03:43;39.74;27.00
74923;HTU21D;64715;44.760;37.678;2023-06-22T05:04:44;39.72;27.05
74923;HTU21D;64715;44.760;37.678;2023-06-22T05:05:45;39.68;26.98
74923;HTU21D;64715;44.760;37.678;2023-06-22T05:06:46;39.62;27.14
74923;HTU21D;64715;44.760;37.678;2023-06-22T05:07:49;39.62;27.04
74923;HTU21D;64715;44.760;37.678;2023-06-22T05:08:54;39.56;27.05
74923;HTU21D;64715;44.760;37.678;2023-06-22T05:09:58;39.54;27.12
74923;HTU21D;64715;44.760;37.678;2023-06-22T05:10:59;39.51;27.11
74923;HTU21D;64715;44.760;37.678;2023-06-22T05:12:00;39.40;26.92
74923;HTU21D;64715;44.760;37.678;2023-06-22T05:13:03;39.32;27.09
74923;HTU21D;64715;44.760;37.678;2023-06-22T05:14:04;39.27;27.01
74923;HTU21D;64715;44.760;37.678;2023-06-22T05:15:07;39.23;27.00
74923;HTU21D;64715;44.760;37.678;2023-06-22T05:16:08;39.17;26.99
74923;HTU21D;64715;44.760;37.678;2023-06-22T05:17:09;39.18;26.96
74923;HTU21D;64715;44.760;37.678;2023-06-22T05:18:14;39.23;27.00
74923;HTU21D;64715;44.760;37.678;2023-06-22T05:19:16;39.32;26.75
74923;HTU21D;64715;44.760;37.678;2023-06-22T05:20:17;39.26;26.50
74923;HTU21D;64715;44.760;37.678;2023-06-22T05:21:23;39.13;26.59
74923;HTU21D;64715;44.760;37.678;2023-06-22T05:22:25;39.02;26.57
74923;HTU21D;64715;44.760;37.678;2023-06-22T05:23:25;38.83;26.59
74923;HTU21D;64715;44.760;37.678;2023-06-22T05:24:26;38.62;26.86
74923;HTU21D;64715;44.760;37.678;2023-06-22T05:25:27;38.43;26.89
74923;HTU21D;64715;44.760;37.678;2023-06-22T05:26:32;38.22;27.14
74923;HTU21D;64715;44.760;37.678;2023-06-22T05:27:33;38.07;27.49
74923;HTU21D;64715;44.760;37.678;2023-06-22T05:28:34;37.97;27.65
74923;HTU21D;64715;44.760;37.678;2023-06-22T05:29:36;37.87;27.57
74923;HTU21D;64715;44.760;37.678;2023-06-22T05:30:38;37.70;27.81
74923;HTU21D;64715;44.760;37.678;2023-06-22T05:31:39;37.56;27.97
74923;HTU21D;64715;44.760;37.678;2023-06-22T05:32:41;37.34;28.03
74923;HTU21D;64715;44.760;37.678;2023-06-22T05:33:43;37.08;28.26
74923;HTU21D;64715;44.760;37.678;2023-06-22T05:34:44;36.87;28.58
74923;HTU21D;64715;44.760;37.678;2023-06-22T05:35:45;36.71;28.73
74923;HTU21D;64715;44.760;37.678;2023-06-22T05:36:47;36.44;28.88
74923;HTU21D;64715;44.760;37.678;2023-06-22T05:37:48;36.12;29.21
74923;HTU21D;64715;44.760;37.678;2023-06-22T05:38:49;35.77;29.72
74923;HTU21D;64715;44.760;37.678;2023-06-22T05:39:50;35.49;30.25
74923;HTU21D;64715;44.760;37.678;2023-06-22T05:40:51;35.25;30.61
74923;HTU21D;64715;44.760;37.678;2023-06-22T05:41:52;34.99;30.77
74923;HTU21D;64715;44.760;37.678;2023-06-22T05:42:53;34.74;31.01
74923;HTU21D;64715;44.760;37.678;2023-06-22T05:43:54;34.42;31.10
74923;HTU21D;64715;44.760;37.678;2023-06-22T05:44:55;34.08;31.34
74923;HTU21D;64715;44.760;37.678;2023-06-22T05:45:56;33.79;31.96
74923;HTU21D;64715;44.760;37.678;2023-06-22T05:46:57;33.59;32.35
74923;HTU21D;64715;44.760;37.678;2023-06-22T05:47:58;33.40;32.53
74923;HTU21D;64715;44.760;37.678;2023-06-22T05:48:59;33.14;32.83
74923;HTU21D;64715;44.760;37.678;2023-06-22T05:50:01;32.88;33.09
74923;HTU21D;64715;44.760;37.678;2023-06-22T05:51:07;32.63;33.41
74923;HTU21D;64715;44.760;37.678;2023-06-22T05:52:07;32.41;33.62
74923;HTU21D;64715;44.760;37.678;2023-06-22T05:53:08;32.15;33.93
74923;HTU21D;64715;44.760;37.678;2023-06-22T05:54:09;31.95;34.37
74923;HTU21D;64715;44.760;37.678;2023-06-22T05:55:10;31.75;34.71
74923;HTU21D;64715;44.760;37.678;2023-06-22T05:56:11;31.63;35.08
74923;HTU21D;64715;44.760;37.678;2023-06-22T05:57:12;31.51;35.34
74923;HTU21D;64715;44.760;37.678;2023-06-22T05:58:13;31.44;35.64
74923;HTU21D;64715;44.760;37.678;2023-06-22T05:59:15;31.34;35.66
74923;HTU21D;64715;44.760;37.678;2023-06-22T06:00:16;31.22;35.60
74923;HTU21D;64715;44.760;37.678;2023-06-22T06:01:17;31.08;35.83
74923;HTU21D;64715;44.760;37.678;2023-06-22T06:02:19;30.93;36.15
74923;HTU21D;64715;44.760;37.678;2023-06-22T06:03:20;30.78;36.34
74923;HTU21D;64715;44.760;37.678;2023-06-22T06:04:21;30.63;36.52
74923;HTU21D;64715;44.760;37.678;2023-06-22T06:05:23;30.50;36.66
74923;HTU21D;64715;44.760;37.678;2023-06-22T06:06:26;30.35;36.94
74923;HTU21D;64715;44.760;37.678;2023-06-22T06:07:29;30.20;36.94
74923;HTU21D;64715;44.760;37.678;2023-06-22T06:08:30;30.05;37.21
74923;HTU21D;64715;44.760;37.678;2023-06-22T06:09:31;29.91;37.56
74923;HTU21D;64715;44.760;37.678;2023-06-22T06:10:33;29.77;37.75
74923;HTU21D;64715;44.760;37.678;2023-06-22T06:11:34;29.65;38.11
74923;HTU21D;64715;44.760;37.678;2023-06-22T06:12:35;29.54;38.24
74923;HTU21D;64715;44.760;37.678;2023-06-22T06:13:36;29.47;38.59
74923;HTU21D;64715;44.760;37.678;2023-06-22T06:14:37;29.41;38.71
74923;HTU21D;64715;44.760;37.678;2023-06-22T06:15:38;29.33;38.93
74923;HTU21D;64715;44.760;37.678;2023-06-22T06:16:39;29.29;39.17
74923;HTU21D;64715;44.760;37.678;2023-06-22T06:17:52;29.26;39.51
74923;HTU21D;64715;44.760;37.678;2023-06-22T06:18:53;29.23;39.61
74923;HTU21D;64715;44.760;37.678;2023-06-22T06:19:56;29.19;39.68
74923;HTU21D;64715;44.760;37.678;2023-06-22T06:20:57;29.14;39.78
74923;HTU21D;64715;44.760;37.678;2023-06-22T06:21:58;29.07;39.88
74923;HTU21D;64715;44.760;37.678;2023-06-22T06:22:59;29.01;39.99
74923;HTU21D;64715;44.760;37.678;2023-06-22T06:24:00;28.98;39.99
74923;HTU21D;64715;44.760;37.678;2023-06-22T06:25:01;28.93;39.81
74923;HTU21D;64715;44.760;37.678;2023-06-22T06:26:02;28.87;40.11
74923;HTU21D;64715;44.760;37.678;2023-06-22T06:27:08;28.83;40.10
74923;HTU21D;64715;44.760;37.678;2023-06-22T06:28:09;28.75;40.18